createdAt,value
2022-10-23T00:01:21.452Z,21.45
2022-10-23T00:03:56.756Z,21.17
2022-10-23T00:06:25.672Z,20.98
2022-10-23T00:08:53.619Z,20.27
2022-10-23T00:11:24.314Z,21.88
2022-10-23T00:13:56.143Z,20.45
2022-10-23T00:16:24.144Z,22.70
2022-10-23T00:18:52.084Z,21.88
2022-10-23T00:21:20.178Z,19.55
2022-10-23T00:23:48.220Z,21.02
2022-10-23T00:26:16.670Z,22.55
2022-10-23T00:28:47.481Z,27.60
2022-10-23T00:31:15.726Z,23.08
2022-10-23T00:33:44.039Z,21.95
2022-10-23T00:36:14.638Z,24.42
2022-10-23T00:38:42.579Z,22.70
2022-10-23T00:41:14.456Z,23.30
2022-10-23T00:43:59.668Z,23.40
2022-10-23T00:46:28.265Z,23.80
2022-10-23T00:48:56.799Z,26.77
2022-10-23T00:51:25.429Z,26.00
2022-10-23T00:54:12.962Z,26.67
2022-10-23T00:56:47.651Z,25.38
2022-10-23T00:59:17.094Z,27.63
2022-10-23T01:01:45.316Z,25.85
2022-10-23T01:04:13.357Z,25.88
2022-10-23T01:06:56.733Z,30.60
2022-10-23T01:09:32.337Z,30.42
2022-10-23T01:12:04.968Z,28.88
2022-10-23T01:14:41.977Z,31.48
2022-10-23T01:17:16.584Z,31.85
2022-10-23T01:20:02.305Z,27.92
2022-10-23T01:22:43.690Z,25.95
2022-10-23T01:25:24.216Z,24.15
2022-10-23T01:27:59.586Z,23.90
2022-10-23T01:30:27.744Z,25.75
2022-10-23T01:32:59.330Z,26.23
2022-10-23T01:35:30.171Z,25.93
2022-10-23T01:38:07.230Z,26.17
2022-10-23T01:40:39.401Z,25.45
2022-10-23T01:43:14.106Z,31.13
2022-10-23T01:45:45.480Z,30.95
2022-10-23T01:48:17.755Z,29.85
2022-10-23T01:50:46.891Z,28.63
2022-10-23T01:53:14.819Z,30.45
2022-10-23T01:55:43.560Z,27.95
2022-10-23T01:58:14.613Z,27.73
2022-10-23T02:00:46.155Z,29.52
2022-10-23T02:03:15.871Z,29.77
2022-10-23T02:05:45.080Z,29.45
2022-10-23T02:08:13.384Z,29.90
2022-10-23T02:10:47.660Z,29.15
2022-10-23T02:13:24.649Z,22.55
2022-10-23T02:16:00.892Z,25.02
2022-10-23T02:18:35.918Z,23.45
2022-10-23T02:21:08.786Z,24.08
2022-10-23T02:23:43.213Z,26.27
2022-10-23T02:26:17.664Z,24.60
2022-10-23T02:28:51.527Z,25.05
2022-10-23T02:31:23.231Z,25.73
2022-10-23T02:33:51.399Z,24.27
2022-10-23T02:36:20.223Z,29.38
2022-10-23T02:38:48.188Z,29.40
2022-10-23T02:41:32.199Z,25.48
2022-10-23T02:44:21.757Z,21.15
2022-10-23T02:46:55.701Z,22.95
2022-10-23T02:49:28.605Z,23.10
2022-10-23T02:52:04.901Z,24.80
2022-10-23T02:54:54.109Z,23.00
2022-10-23T02:57:31.010Z,28.50
2022-10-23T03:00:05.754Z,28.73
2022-10-23T03:02:39.155Z,27.50
2022-10-23T03:05:10.312Z,31.67
2022-10-23T03:07:39.874Z,31.05
2022-10-23T03:10:09.809Z,28.00
2022-10-23T03:12:38.277Z,29.38
2022-10-23T03:15:08.943Z,29.45
2022-10-23T03:17:36.838Z,28.77
2022-10-23T03:20:05.177Z,28.63
2022-10-23T03:22:33.091Z,26.63
2022-10-23T03:25:00.965Z,27.88
2022-10-23T03:30:01.771Z,32.75
2022-10-23T03:32:31.015Z,29.70
2022-10-23T03:34:58.939Z,31.35
2022-10-23T03:37:27.154Z,31.67
2022-10-23T03:39:55.033Z,32.22
2022-10-23T03:42:22.965Z,31.55
2022-10-23T03:44:50.854Z,31.13
2022-10-23T03:47:18.814Z,30.08
2022-10-23T03:49:48.055Z,31.23
2022-10-23T03:52:16.081Z,31.70
2022-10-23T03:54:43.975Z,33.60
2022-10-23T03:57:11.946Z,31.13
2022-10-23T03:59:39.811Z,37.03
2022-10-23T04:02:07.798Z,32.50
2022-10-23T04:04:35.925Z,33.25
2022-10-23T04:07:05.210Z,32.35
2022-10-23T04:09:33.078Z,33.67
2022-10-23T04:12:00.975Z,34.90
2022-10-23T04:14:28.981Z,34.95
2022-10-23T04:16:57.202Z,33.30
2022-10-23T04:19:25.233Z,33.90
2022-10-23T04:21:53.098Z,33.25
2022-10-23T04:24:22.352Z,33.55
2022-10-23T04:26:50.226Z,35.55
2022-10-23T04:29:18.141Z,33.67
2022-10-23T04:31:46.010Z,31.20
2022-10-23T04:34:13.916Z,29.08
2022-10-23T04:36:41.846Z,30.27
2022-10-23T04:39:09.938Z,32.63
2022-10-23T04:41:39.867Z,29.65
2022-10-23T04:44:08.171Z,30.33
2022-10-23T04:46:36.081Z,32.10
2022-10-23T04:49:03.997Z,31.95
2022-10-23T04:51:31.871Z,35.22
2022-10-23T04:53:59.850Z,31.08
2022-10-23T04:56:27.873Z,36.28
2022-10-23T04:58:57.166Z,37.97
2022-10-23T05:01:25.183Z,34.35
2022-10-23T05:03:53.997Z,33.78
2022-10-23T05:06:21.907Z,33.25
2022-10-23T05:08:49.776Z,35.05
2022-10-23T05:11:17.842Z,31.90
2022-10-23T05:13:45.785Z,33.20
2022-10-23T05:16:28.808Z,36.65
2022-10-23T05:18:57.253Z,34.47
2022-10-23T05:21:27.955Z,34.63
2022-10-23T05:23:56.069Z,35.67
2022-10-23T05:26:23.998Z,34.17
2022-10-23T05:28:51.870Z,33.40
2022-10-23T05:31:22.494Z,33.78
2022-10-23T05:33:50.830Z,30.63
2022-10-23T05:36:18.869Z,34.42
2022-10-23T05:38:47.603Z,31.73
2022-10-23T05:41:15.498Z,34.40
2022-10-23T05:43:43.482Z,31.50
2022-10-23T05:46:11.358Z,31.05
2022-10-23T05:48:40.603Z,31.25
2022-10-23T05:51:10.429Z,28.73
2022-10-23T05:53:40.388Z,28.50
2022-10-23T05:56:10.905Z,30.40
2022-10-23T05:58:38.824Z,28.20
2022-10-23T06:01:08.011Z,28.60
2022-10-23T06:03:36.202Z,28.73
2022-10-23T06:06:06.413Z,29.63
2022-10-23T06:08:35.867Z,30.20
2022-10-23T06:11:08.451Z,30.52
2022-10-23T06:13:36.525Z,30.70
2022-10-23T06:16:10.701Z,29.33
2022-10-23T06:18:38.655Z,32.20
2022-10-23T06:21:08.263Z,34.60
2022-10-23T06:23:37.606Z,33.80
2022-10-23T06:26:06.516Z,34.75
2022-10-23T06:28:34.812Z,30.85
2022-10-23T06:31:05.880Z,34.35
2022-10-23T06:33:33.799Z,33.50
2022-10-23T06:36:02.371Z,33.17
2022-10-23T06:38:36.616Z,29.85
2022-10-23T06:41:05.920Z,32.67
2022-10-23T06:43:33.847Z,36.70
2022-10-23T06:46:03.058Z,34.25
2022-10-23T06:48:31.058Z,33.60
2022-10-23T06:50:59.195Z,32.50
2022-10-23T06:53:27.904Z,35.85
2022-10-23T06:56:01.758Z,34.13
2022-10-23T06:58:29.699Z,36.47
2022-10-23T07:01:00.828Z,37.92
2022-10-23T07:03:29.011Z,35.35
2022-10-23T07:05:56.910Z,35.22
2022-10-23T07:08:24.866Z,34.83
2022-10-23T07:10:52.782Z,37.65
2022-10-23T07:13:22.382Z,35.20
2022-10-23T07:15:50.293Z,37.67
2022-10-23T07:18:19.454Z,40.38
2022-10-23T07:20:49.468Z,39.55
2022-10-23T07:23:17.470Z,42.13
2022-10-23T07:25:45.367Z,40.42
2022-10-23T07:28:13.232Z,40.70
2022-10-23T07:30:42.956Z,40.45
2022-10-23T07:33:12.451Z,37.25
2022-10-23T07:35:40.859Z,40.97
2022-10-23T07:38:08.766Z,41.63
2022-10-23T07:40:36.671Z,43.70
2022-10-23T07:43:04.582Z,44.55
2022-10-23T07:45:32.451Z,43.22
2022-10-23T07:48:01.750Z,39.75
2022-10-23T07:50:29.622Z,36.95
2022-10-23T07:52:58.603Z,38.05
2022-10-23T07:55:26.503Z,38.60
2022-10-23T07:57:54.374Z,36.88
2022-10-23T08:02:55.479Z,37.67
2022-10-23T08:05:24.866Z,33.30
2022-10-23T08:07:52.758Z,36.72
2022-10-23T08:10:20.647Z,35.40
2022-10-23T08:12:48.521Z,36.38
2022-10-23T08:15:16.471Z,33.78
2022-10-23T08:17:44.509Z,33.42
2022-10-23T08:20:13.695Z,34.75
2022-10-23T08:22:42.891Z,33.60
2022-10-23T08:25:11.543Z,35.17
2022-10-23T08:27:39.876Z,31.60
2022-10-23T08:30:08.603Z,31.60
2022-10-23T08:32:36.506Z,32.63
2022-10-23T08:35:04.634Z,33.58
2022-10-23T08:37:32.874Z,30.92
2022-10-23T08:40:02.136Z,32.20
2022-10-23T08:42:30.217Z,33.50
2022-10-23T08:45:07.354Z,29.73
2022-10-23T08:47:40.461Z,27.10
2022-10-23T08:50:16.506Z,28.17
2022-10-23T08:52:50.411Z,27.20
2022-10-23T08:55:24.842Z,27.73
2022-10-23T08:57:58.577Z,26.55
2022-10-23T09:00:26.489Z,24.58
2022-10-23T09:02:56.296Z,26.83
2022-10-23T09:05:30.843Z,27.63
2022-10-23T09:08:37.174Z,25.27
2022-10-23T09:11:12.791Z,25.98
2022-10-23T09:14:08.359Z,25.05
2022-10-23T09:16:49.315Z,23.00
2022-10-23T09:19:19.307Z,22.63
2022-10-23T09:21:50.369Z,23.30
2022-10-23T09:24:22.134Z,23.10
2022-10-23T09:26:53.601Z,22.42
2022-10-23T09:29:26.390Z,22.77
2022-10-23T09:31:57.021Z,21.73
2022-10-23T09:34:27.351Z,21.40
2022-10-23T09:37:00.347Z,22.83
2022-10-23T09:39:31.033Z,19.40
2022-10-23T09:42:02.445Z,19.02
2022-10-23T09:44:32.563Z,20.57
2022-10-23T09:47:09.203Z,18.92
2022-10-23T09:49:39.805Z,20.40
2022-10-23T09:52:25.054Z,21.13
2022-10-23T09:54:55.618Z,21.38
2022-10-23T09:57:30.016Z,19.73
2022-10-23T10:00:00.967Z,18.40
2022-10-23T10:02:31.567Z,20.77
2022-10-23T10:05:00.143Z,20.65
2022-10-23T10:07:33.379Z,19.90
2022-10-23T10:10:03.882Z,21.13
2022-10-23T10:12:49.233Z,20.15
2022-10-23T10:15:23.675Z,20.25
2022-10-23T10:18:03.823Z,19.52
2022-10-23T10:20:54.001Z,18.10
2022-10-23T10:23:29.673Z,20.00
2022-10-23T10:26:07.912Z,20.25
2022-10-23T10:28:55.574Z,17.23
2022-10-23T10:31:31.887Z,18.30
2022-10-23T10:34:09.203Z,18.58
2022-10-23T10:36:45.835Z,18.27
2022-10-23T10:39:22.175Z,15.32
2022-10-23T10:42:00.499Z,17.92
2022-10-23T10:44:43.647Z,16.00
2022-10-23T10:47:21.260Z,17.02
2022-10-23T10:50:00.515Z,14.60
2022-10-23T10:52:35.236Z,18.50
2022-10-23T10:55:14.047Z,15.18
2022-10-23T10:57:45.235Z,15.25
2022-10-23T11:00:19.049Z,13.75
2022-10-23T11:02:49.158Z,12.40
2022-10-23T11:05:26.426Z,11.75
2022-10-23T11:07:57.907Z,11.55
2022-10-23T11:10:26.262Z,12.63
2022-10-23T11:12:54.316Z,11.52
2022-10-23T11:15:27.226Z,12.52
2022-10-23T11:17:59.457Z,11.30
2022-10-23T11:23:47.835Z,11.48
2022-10-23T11:26:27.971Z,12.07
2022-10-23T11:29:14.121Z,10.38
2022-10-23T11:31:53.108Z,10.95
2022-10-23T11:34:41.288Z,10.98
2022-10-23T11:37:09.397Z,9.32
2022-10-23T11:39:40.331Z,9.73
2022-10-23T11:42:29.258Z,11.30
2022-10-23T11:44:57.106Z,10.85
2022-10-23T11:47:39.530Z,10.73
2022-10-23T11:50:31.218Z,10.20
2022-10-23T11:53:15.797Z,8.40
2022-10-23T11:55:59.670Z,10.23
2022-10-23T11:58:32.108Z,9.05
2022-10-23T12:01:05.396Z,9.48
2022-10-23T12:03:52.327Z,8.60
2022-10-23T12:06:25.731Z,8.70
2022-10-23T12:08:57.437Z,10.10
2022-10-23T12:11:41.329Z,10.70
2022-10-23T12:14:30.866Z,9.05
2022-10-23T12:16:59.372Z,8.10
2022-10-23T12:19:30.172Z,8.23
2022-10-23T12:22:01.644Z,9.30
2022-10-23T12:24:51.402Z,7.03
2022-10-23T12:27:30.970Z,9.68
2022-10-23T12:30:24.246Z,8.85
2022-10-23T12:33:16.458Z,6.45
2022-10-23T12:36:10.422Z,11.45
2022-10-23T12:38:45.471Z,9.40
2022-10-23T12:41:16.875Z,9.25
2022-10-23T12:43:50.590Z,9.30
2022-10-23T12:46:32.687Z,7.97
2022-10-23T12:49:01.757Z,10.23
2022-10-23T12:51:32.679Z,8.63
2022-10-23T12:54:01.148Z,7.28
2022-10-23T12:56:35.509Z,7.72
2022-10-23T12:59:04.044Z,8.27
2022-10-23T13:01:34.083Z,7.05
2022-10-23T13:04:08.838Z,10.05
2022-10-23T13:06:39.330Z,9.68
2022-10-23T13:09:08.761Z,11.18
2022-10-23T13:11:37.578Z,8.07
2022-10-23T13:14:12.651Z,7.28
2022-10-23T13:16:40.531Z,6.47
2022-10-23T13:19:21.746Z,11.57
2022-10-23T13:21:51.030Z,7.80
2022-10-23T13:24:22.613Z,7.60
2022-10-23T13:26:50.485Z,9.27
2022-10-23T13:29:22.306Z,8.70
2022-10-23T13:31:50.956Z,9.95
2022-10-23T13:34:26.251Z,9.98
2022-10-23T13:37:02.050Z,6.80
2022-10-23T13:39:32.670Z,9.52
2022-10-23T13:42:10.741Z,8.13
2022-10-23T13:44:38.753Z,8.40
2022-10-23T13:47:07.616Z,7.57
2022-10-23T13:49:35.504Z,7.70
2022-10-23T13:52:04.900Z,9.40
2022-10-23T13:54:32.827Z,7.03
2022-10-23T13:57:00.779Z,6.97
2022-10-23T13:59:28.718Z,9.35
2022-10-23T14:01:56.687Z,6.53
2022-10-23T14:04:24.743Z,7.95
2022-10-23T14:06:58.321Z,5.65
2022-10-23T14:09:27.535Z,9.73
2022-10-23T14:11:55.430Z,13.18
2022-10-23T14:14:23.316Z,4.82
2022-10-23T14:16:52.770Z,6.63
2022-10-23T14:19:20.662Z,7.53
2022-10-23T14:21:48.539Z,9.00
2022-10-23T14:24:16.431Z,7.47
2022-10-23T14:26:45.702Z,8.70
2022-10-23T14:29:21.266Z,7.15
2022-10-23T14:31:51.918Z,7.95
2022-10-23T14:34:19.915Z,5.25
2022-10-23T14:37:03.869Z,6.90
2022-10-23T14:39:35.678Z,6.82
2022-10-23T14:42:05.098Z,7.70
2022-10-23T14:44:33.033Z,8.38
2022-10-23T14:47:01.430Z,6.60
2022-10-23T14:49:29.378Z,9.00
2022-10-23T14:51:57.264Z,5.40
2022-10-23T14:54:28.241Z,6.53
2022-10-23T14:56:56.122Z,6.05
2022-10-23T14:59:25.369Z,8.20
2022-10-23T15:04:22.941Z,8.48
2022-10-23T15:06:50.842Z,9.13
2022-10-23T15:09:19.968Z,6.35
2022-10-23T15:11:47.878Z,7.00
2022-10-23T15:14:15.889Z,8.75
2022-10-23T15:16:45.123Z,6.95
2022-10-23T15:19:18.157Z,8.57
2022-10-23T15:21:47.126Z,6.10
2022-10-23T15:24:15.698Z,6.40
2022-10-23T15:26:44.476Z,9.05
2022-10-23T15:29:14.410Z,10.68
2022-10-23T15:31:49.214Z,8.15
2022-10-23T15:34:19.703Z,8.30
2022-10-23T15:36:48.686Z,7.25
2022-10-23T15:39:18.485Z,8.95
2022-10-23T15:41:47.225Z,7.43
2022-10-23T15:44:17.367Z,8.32
2022-10-23T15:46:47.112Z,7.13
2022-10-23T15:49:15.168Z,7.97
2022-10-23T15:51:44.363Z,14.38
2022-10-23T15:54:16.542Z,6.28
2022-10-23T15:59:12.567Z,9.18
2022-10-23T16:01:40.698Z,6.53
2022-10-23T16:04:10.301Z,8.60
2022-10-23T16:06:38.237Z,7.30
2022-10-23T16:09:06.446Z,7.13
2022-10-23T16:11:36.977Z,7.00
2022-10-23T16:14:06.063Z,9.45
2022-10-23T16:16:34.722Z,7.65
2022-10-23T16:19:04.697Z,7.25
2022-10-23T16:21:36.177Z,8.13
2022-10-23T16:24:06.472Z,8.98
2022-10-23T16:26:35.607Z,7.03
2022-10-23T16:29:05.707Z,8.40
2022-10-23T16:31:34.051Z,7.78
2022-10-23T16:34:04.632Z,6.30
2022-10-23T16:36:34.505Z,6.90
2022-10-23T16:39:03.775Z,8.48
2022-10-23T16:41:31.825Z,14.45
2022-10-23T16:43:59.861Z,7.18
2022-10-23T16:46:28.138Z,9.60
2022-10-23T16:48:56.073Z,6.72
2022-10-23T16:51:26.537Z,9.13
2022-10-23T16:53:56.344Z,6.97
2022-10-23T16:56:27.806Z,9.75
2022-10-23T16:58:56.101Z,7.73
2022-10-23T17:01:25.848Z,8.63
2022-10-23T17:03:55.125Z,7.10
2022-10-23T17:06:25.340Z,10.75
2022-10-23T17:08:55.066Z,8.38
2022-10-23T17:11:24.502Z,11.25
2022-10-23T17:13:58.481Z,10.55
2022-10-23T17:16:29.766Z,7.10
2022-10-23T17:18:58.276Z,11.48
2022-10-23T17:21:26.245Z,12.40
2022-10-23T17:23:55.565Z,8.40
2022-10-23T17:26:23.660Z,6.43
2022-10-23T17:28:51.651Z,8.45
2022-10-23T17:31:21.796Z,6.88
2022-10-23T17:33:51.910Z,8.82
2022-10-23T17:36:21.129Z,9.05
2022-10-23T17:38:49.210Z,9.32
2022-10-23T17:41:20.255Z,7.72
2022-10-23T17:43:48.858Z,11.25
2022-10-23T17:46:17.801Z,11.32
2022-10-23T17:48:45.874Z,7.97
2022-10-23T17:51:15.787Z,7.93
2022-10-23T17:53:45.969Z,11.82
2022-10-23T17:56:18.924Z,9.13
2022-10-23T17:58:48.290Z,8.10
2022-10-23T18:01:18.199Z,7.32
2022-10-23T18:03:46.181Z,8.50
2022-10-23T18:06:17.792Z,12.80
2022-10-23T18:08:46.618Z,8.57
2022-10-23T18:11:17.969Z,9.38
2022-10-23T18:13:48.081Z,12.70
2022-10-23T18:16:19.259Z,10.35
2022-10-23T18:18:48.703Z,9.40
2022-10-23T18:21:17.623Z,13.90
2022-10-23T18:23:46.246Z,13.70
2022-10-23T18:26:16.984Z,12.23
2022-10-23T18:28:45.773Z,15.73
2022-10-23T18:31:14.922Z,12.32
2022-10-23T18:33:44.308Z,11.73
2022-10-23T18:36:17.230Z,14.23
2022-10-23T18:38:45.341Z,14.65
2022-10-23T18:41:13.217Z,14.93
2022-10-23T18:43:44.178Z,16.23
2022-10-23T18:46:12.552Z,17.47
2022-10-23T18:48:40.392Z,19.17
2022-10-23T18:51:16.105Z,27.73
2022-10-23T18:53:46.638Z,20.15
2022-10-23T18:56:15.616Z,19.20
2022-10-23T18:58:43.514Z,17.80
2022-10-23T19:01:11.811Z,16.65
2022-10-23T19:03:39.703Z,15.82
2022-10-23T19:06:08.537Z,17.38
2022-10-23T19:08:38.772Z,14.65
2022-10-23T19:11:07.912Z,11.50
2022-10-23T19:13:39.070Z,10.32
2022-10-23T19:16:10.838Z,11.65
2022-10-23T19:18:40.538Z,7.95
2022-10-23T19:21:08.430Z,9.88
2022-10-23T19:23:40.374Z,6.70
2022-10-23T19:26:11.866Z,5.15
2022-10-23T19:28:43.016Z,6.40
2022-10-23T19:31:11.526Z,3.90
2022-10-23T19:33:40.073Z,4.60
2022-10-23T19:36:12.554Z,5.47
2022-10-23T19:38:43.252Z,7.13
2022-10-23T19:41:11.359Z,4.32
2022-10-23T19:43:39.516Z,5.05
2022-10-23T19:46:10.990Z,4.22
2022-10-23T19:48:44.188Z,5.20
2022-10-23T19:51:12.857Z,6.63
2022-10-23T19:53:42.582Z,5.15
2022-10-23T19:56:13.680Z,6.30
2022-10-23T19:58:41.807Z,5.43
2022-10-23T20:01:11.438Z,7.68
2022-10-23T20:03:41.902Z,7.43
2022-10-23T20:06:11.112Z,9.13
2022-10-23T20:08:39.277Z,6.70
2022-10-23T20:11:07.730Z,7.82
2022-10-23T20:13:37.084Z,9.10
2022-10-23T20:16:05.348Z,8.55
2022-10-23T20:18:33.234Z,8.55
2022-10-23T20:21:03.191Z,7.18
2022-10-23T20:23:31.010Z,6.95
2022-10-23T20:26:05.471Z,9.63
2022-10-23T20:28:33.433Z,11.23
2022-10-23T20:31:06.142Z,9.77
2022-10-23T20:33:33.945Z,10.57
2022-10-23T20:36:01.805Z,8.60
2022-10-23T20:38:29.709Z,11.27
2022-10-23T20:41:00.240Z,13.57
2022-10-23T20:43:28.335Z,12.75
2022-10-23T20:45:56.203Z,15.18
2022-10-23T20:48:25.356Z,17.65
2022-10-23T20:50:53.163Z,20.85
2022-10-23T20:53:20.956Z,21.75
2022-10-23T20:55:48.763Z,25.17
2022-10-23T20:58:16.552Z,23.42
2022-10-23T21:00:44.617Z,24.73
2022-10-23T21:03:12.467Z,25.50
2022-10-23T21:05:43.440Z,28.40
2022-10-23T21:08:11.290Z,28.25
2022-10-23T21:10:45.925Z,29.73
2022-10-23T21:13:13.886Z,32.20
2022-10-23T21:15:41.673Z,30.77
2022-10-23T21:18:27.195Z,30.50
2022-10-23T21:23:31.355Z,28.00
2022-10-23T21:26:02.189Z,26.33
2022-10-23T21:28:33.092Z,23.00
2022-10-23T21:31:04.591Z,21.60
2022-10-23T21:33:32.847Z,21.80
2022-10-23T21:36:12.858Z,26.02
2022-10-23T21:38:43.091Z,20.60
2022-10-23T21:41:13.298Z,19.63
2022-10-23T21:43:41.327Z,18.35
2022-10-23T21:46:12.926Z,16.80
2022-10-23T21:48:41.075Z,18.48
2022-10-23T21:51:14.565Z,18.20
2022-10-23T21:53:43.938Z,19.42
2022-10-23T21:56:24.780Z,16.60
2022-10-23T21:58:52.864Z,18.23
2022-10-23T22:01:21.147Z,16.55
2022-10-23T22:03:49.278Z,18.33
2022-10-23T22:06:19.030Z,18.05
2022-10-23T22:08:48.602Z,21.23
2022-10-23T22:11:17.247Z,19.92
2022-10-23T22:13:46.530Z,20.30
2022-10-23T22:16:16.147Z,20.35
2022-10-23T22:18:45.037Z,21.35
2022-10-23T22:21:16.157Z,21.73
2022-10-23T22:23:44.523Z,22.02
2022-10-23T22:26:22.971Z,24.58
2022-10-23T22:28:52.154Z,22.17
2022-10-23T22:31:22.782Z,22.85
2022-10-23T22:33:51.373Z,23.50
2022-10-23T22:36:19.587Z,20.55
2022-10-23T22:38:48.062Z,22.30
2022-10-23T22:41:18.155Z,19.40
2022-10-23T22:43:46.210Z,20.88
2022-10-23T22:46:15.681Z,18.58
2022-10-23T22:48:43.838Z,18.30
2022-10-23T22:51:13.437Z,17.75
2022-10-23T22:53:41.506Z,17.50
2022-10-23T22:56:11.511Z,16.25
2022-10-23T22:58:40.727Z,17.42
2022-10-23T23:01:11.760Z,15.30
2022-10-23T23:03:39.837Z,16.38
2022-10-23T23:06:08.835Z,17.23
2022-10-23T23:08:39.739Z,14.43
2022-10-23T23:11:09.251Z,13.57
2022-10-23T23:13:38.094Z,15.63
2022-10-23T23:16:07.938Z,17.08
2022-10-23T23:18:36.260Z,19.80
2022-10-23T23:21:05.111Z,22.63
2022-10-23T23:23:33.341Z,24.55
2022-10-23T23:26:01.254Z,22.30
2022-10-23T23:28:29.197Z,23.38
2022-10-23T23:31:04.741Z,23.00
2022-10-23T23:33:34.066Z,25.08
2022-10-23T23:36:02.076Z,24.98
2022-10-23T23:38:29.958Z,25.13
2022-10-23T23:40:57.835Z,26.38
2022-10-23T23:43:25.771Z,28.17
2022-10-23T23:45:53.671Z,26.67
2022-10-23T23:48:21.563Z,27.42
2022-10-23T23:50:50.830Z,27.15
2022-10-23T23:53:19.129Z,28.38
2022-10-23T23:55:47.089Z,31.23
2022-10-23T23:58:15.082Z,35.53
